Terminal Aerodrome Forecast
Issued by NWS

Home | Current Version | Previous Version | Text Only | Print | Product List | Glossary Off
Versions: 1 2 3 4 5 6 7 8 9 10 11 12 13 14 15 16 17 18 19 20 21 22 23 24 25

000
FTUS45 KGGW 060500
TAFGDV
TAF
KGDV 060520Z 0606/0706 13008KT P6SM BKN070
     FM060900 VRB06KT P6SM BKN080
     FM061200 00000KT P6SM VCSH OVC030
     FM062100 32009KT 6SM -SHRA OVC030
      AMD LTD TO CLD VIS AND WIND=

USA.gov is the U.S. government's official web portal to all federal, state and local government web resources and services.